Terminal Aerodrome Forecast
Issued by NWS Cleveland, OH

Home | Current Version | Previous Version | Text Only | Print | Product List | Glossary Off
Versions: 1 2 3 4 5 6 7 8 9 10 11 12 13 14 15 16

939
FTUS41 KCLE 181732
TAFCAK
TAF
KCAK 181732Z 1818/1918 VRB03KT P6SM SCT040 BKN150
     FM190200 01004KT P6SM FEW045 BKN150
     FM191400 VRB04KT P6SM BKN040=

USA.gov is the U.S. government's official web portal to all federal, state and local government web resources and services.